West Ashford, Connecticut
Current Conditions -  °F | °C
As of 3:52 PM on Friday 28 Nov 2014 (Local Time) from KIJD Reporting Station
Overcast Overcast  
Wind Chill: 27°   Ceiling: 5000
Heat Index: 34°   Visibility: 10mi
Dew Point: 16°   Wind: 8mph
Humidity: 48%   Direction: 310°NW
Pressure: 30.13"   Gusts: 18mph
Location:  41.7742°N, 72.196°W
Report Text: KIJD 282052Z AUTO 31007G16KT 10SM OVC050 01/M09 A3013 RMK AO2 SLP204 T00111089 53015
Loading
Personal Weather Stations






























Interactive Weather Map New forecast layout! Learn more

10-Day Weather Forecast

Advertisements
Track Severe Weather on mobile